createdAt,value
2018-05-12T00:00:54.530Z,988.02
2018-05-12T00:02:01.258Z,988.03
2018-05-12T00:03:08.218Z,987.96
2018-05-12T00:04:14.919Z,987.99
2018-05-12T00:05:21.662Z,987.93
2018-05-12T00:06:28.472Z,987.95
2018-05-12T00:07:35.168Z,987.96
2018-05-12T00:08:41.938Z,987.93
2018-05-12T00:09:48.646Z,987.95
2018-05-12T00:10:55.430Z,987.92
2018-05-12T00:12:02.147Z,987.90
2018-05-12T00:13:08.891Z,987.92
2018-05-12T00:14:15.682Z,987.92
2018-05-12T00:15:22.390Z,987.87
2018-05-12T00:16:29.137Z,987.97
2018-05-12T00:17:35.854Z,987.96
2018-05-12T00:18:42.550Z,987.93
2018-05-12T00:19:49.266Z,987.92
2018-05-12T00:20:56.087Z,987.90
2018-05-12T00:22:02.803Z,987.95
2018-05-12T00:23:09.535Z,987.91
2018-05-12T00:24:16.249Z,988.04
2018-05-12T00:25:22.995Z,987.88
2018-05-12T00:26:29.814Z,987.97
2018-05-12T00:27:36.519Z,987.88
2018-05-12T00:28:43.236Z,987.90
2018-05-12T00:29:49.935Z,987.88
2018-05-12T00:30:56.690Z,987.90
2018-05-12T00:32:03.384Z,987.89
2018-05-12T00:33:10.195Z,987.89
2018-05-12T00:34:16.890Z,987.82
2018-05-12T00:35:23.591Z,987.86
2018-05-12T00:36:30.323Z,987.85
2018-05-12T00:37:37.030Z,987.83
2018-05-12T00:38:43.735Z,987.88
2018-05-12T00:39:50.432Z,987.88
2018-05-12T00:40:57.255Z,987.90
2018-05-12T00:42:03.964Z,987.90
2018-05-12T00:43:10.718Z,987.82
2018-05-12T00:44:17.439Z,987.91
2018-05-12T00:45:24.141Z,987.88
2018-05-12T00:46:30.999Z,987.89
2018-05-12T00:47:37.735Z,987.89
2018-05-12T00:48:44.447Z,987.88
2018-05-12T00:49:51.170Z,987.93
2018-05-12T00:50:57.907Z,987.84
2018-05-12T00:52:04.730Z,987.80
2018-05-12T00:53:11.431Z,987.81
2018-05-12T00:54:18.155Z,987.85
2018-05-12T00:55:24.870Z,987.82
2018-05-12T00:56:32.003Z,987.90
2018-05-12T00:57:38.703Z,987.90
2018-05-12T00:58:45.425Z,987.86
2018-05-12T00:59:52.134Z,987.86
2018-05-12T01:00:58.938Z,987.77
2018-05-12T01:02:05.686Z,987.80
2018-05-12T01:03:12.480Z,987.77
2018-05-12T01:04:19.183Z,987.77
2018-05-12T01:05:26.019Z,987.70
2018-05-12T01:06:32.758Z,987.79
2018-05-12T01:07:39.715Z,987.75
2018-05-12T01:08:46.486Z,987.80
2018-05-12T01:09:53.194Z,987.70
2018-05-12T01:10:59.957Z,987.72
2018-05-12T01:12:06.671Z,987.73
2018-05-12T01:13:13.398Z,987.73
2018-05-12T01:14:20.507Z,987.73
2018-05-12T01:15:27.332Z,987.68
2018-05-12T01:16:34.055Z,987.67
2018-05-12T01:17:40.784Z,987.72
2018-05-12T01:18:47.630Z,987.74
2018-05-12T01:19:54.436Z,987.74
2018-05-12T01:21:01.207Z,987.69
2018-05-12T01:22:07.955Z,987.69
2018-05-12T01:23:14.690Z,987.73
2018-05-12T01:24:21.527Z,987.67
2018-05-12T01:25:28.279Z,987.71
2018-05-12T01:26:35.050Z,987.60
2018-05-12T01:27:41.759Z,987.63
2018-05-12T01:28:48.511Z,987.58
2018-05-12T01:29:55.304Z,987.68
2018-05-12T01:31:02.133Z,987.57
2018-05-12T01:32:08.903Z,987.64
2018-05-12T01:33:15.750Z,987.60
2018-05-12T01:34:22.558Z,987.60
2018-05-12T01:35:29.299Z,987.67
2018-05-12T01:36:36.328Z,987.70
2018-05-12T01:37:43.083Z,987.65
2018-05-12T01:38:49.835Z,987.66
2018-05-12T01:39:56.567Z,987.65
2018-05-12T01:41:03.350Z,987.69
2018-05-12T01:42:10.102Z,987.69
2018-05-12T01:43:16.826Z,987.61
2018-05-12T01:44:23.880Z,987.62
2018-05-12T01:45:30.615Z,987.59
2018-05-12T01:46:37.351Z,987.63
2018-05-12T01:47:44.110Z,987.66
2018-05-12T01:48:50.818Z,987.66
2018-05-12T01:49:57.621Z,987.64
2018-05-12T01:51:04.347Z,987.65
2018-05-12T01:52:11.096Z,987.70
2018-05-12T01:53:17.847Z,987.63
2018-05-12T01:54:24.579Z,987.67
2018-05-12T01:55:31.391Z,987.69
2018-05-12T01:56:38.149Z,987.68
2018-05-12T01:57:44.908Z,987.63
2018-05-12T01:58:51.659Z,987.72
2018-05-12T01:59:58.486Z,987.70
2018-05-12T02:01:05.283Z,987.77
2018-05-12T02:02:12.063Z,987.68
2018-05-12T02:03:18.807Z,987.68
2018-05-12T02:04:25.574Z,987.68
2018-05-12T02:05:32.346Z,987.61
2018-05-12T02:06:39.078Z,987.65
2018-05-12T02:07:45.851Z,987.64
2018-05-12T02:08:52.672Z,987.67
2018-05-12T02:09:59.395Z,987.64
2018-05-12T02:11:06.147Z,987.64
2018-05-12T02:12:12.862Z,987.68
2018-05-12T02:13:19.673Z,987.62
2018-05-12T02:14:26.447Z,987.66
2018-05-12T02:15:33.179Z,987.61
2018-05-12T02:16:40.019Z,987.61
2018-05-12T02:17:46.754Z,987.60
2018-05-12T02:18:53.547Z,987.60
2018-05-12T02:20:00.274Z,987.62
2018-05-12T02:21:07.058Z,987.63
2018-05-12T02:22:13.782Z,987.65
2018-05-12T02:23:20.539Z,987.64
2018-05-12T02:24:27.294Z,987.68
2018-05-12T02:25:34.147Z,987.72
2018-05-12T02:26:40.930Z,987.73
2018-05-12T02:27:47.764Z,987.70
2018-05-12T02:28:54.518Z,987.66
2018-05-12T02:30:01.239Z,987.64
2018-05-12T02:31:08.051Z,987.71
2018-05-12T02:32:14.830Z,987.70
2018-05-12T02:33:21.555Z,987.77
2018-05-12T02:34:28.335Z,987.76
2018-05-12T02:35:35.067Z,987.72
2018-05-12T02:36:41.782Z,987.75
2018-05-12T02:37:48.606Z,987.74
2018-05-12T02:38:55.379Z,987.77
2018-05-12T02:40:02.130Z,987.80
2018-05-12T02:41:09.139Z,987.71
2018-05-12T02:42:15.860Z,987.74
2018-05-12T02:43:22.627Z,987.62
2018-05-12T02:44:29.338Z,987.68
2018-05-12T02:45:36.140Z,987.70
2018-05-12T02:46:42.858Z,987.70
2018-05-12T02:47:49.695Z,987.68
2018-05-12T02:48:56.410Z,987.65
2018-05-12T02:50:03.219Z,987.66
2018-05-12T02:51:09.972Z,987.61
2018-05-12T02:52:16.711Z,987.60
2018-05-12T02:53:23.455Z,987.63
2018-05-12T02:54:30.292Z,987.58
2018-05-12T02:55:36.995Z,987.59
2018-05-12T02:56:43.851Z,987.52
2018-05-12T02:57:50.745Z,987.64
2018-05-12T02:58:57.488Z,987.62
2018-05-12T03:00:04.371Z,987.68
2018-05-12T03:01:11.159Z,987.60
2018-05-12T03:02:17.882Z,987.62
2018-05-12T03:03:24.631Z,987.60
2018-05-12T03:04:31.375Z,987.60
2018-05-12T03:05:38.252Z,987.64
2018-05-12T03:06:45.063Z,987.65
2018-05-12T03:07:51.838Z,987.63
2018-05-12T03:08:58.655Z,987.64
2018-05-12T03:10:05.409Z,987.61
2018-05-12T03:11:12.176Z,987.64
2018-05-12T03:12:18.899Z,987.67
2018-05-12T03:13:25.735Z,987.63
2018-05-12T03:14:32.487Z,987.60
2018-05-12T03:15:39.230Z,987.65
2018-05-12T03:16:45.955Z,987.59
2018-05-12T03:17:52.795Z,987.61
2018-05-12T03:18:59.614Z,987.62
2018-05-12T03:20:06.369Z,987.56
2018-05-12T03:21:13.163Z,987.54
2018-05-12T03:22:19.891Z,987.57
2018-05-12T03:23:26.643Z,987.62
2018-05-12T03:24:33.366Z,987.63
2018-05-12T03:25:40.187Z,987.60
2018-05-12T03:26:46.890Z,987.61
2018-05-12T03:27:53.615Z,987.60
2018-05-12T03:29:00.378Z,987.58
2018-05-12T03:30:07.234Z,987.52
2018-05-12T03:31:13.955Z,987.53
2018-05-12T03:32:20.703Z,987.56
2018-05-12T03:33:27.454Z,987.57
2018-05-12T03:34:34.158Z,987.53
2018-05-12T03:35:40.959Z,987.60
2018-05-12T03:36:47.674Z,987.68
2018-05-12T03:37:54.422Z,987.61
2018-05-12T03:39:01.182Z,987.59
2018-05-12T03:40:08.236Z,987.58
2018-05-12T03:41:14.979Z,987.60
2018-05-12T03:42:21.682Z,987.64
2018-05-12T03:43:28.500Z,987.61
2018-05-12T03:44:35.239Z,987.66
2018-05-12T03:45:41.951Z,987.58
2018-05-12T03:46:48.699Z,987.64
2018-05-12T03:47:55.415Z,987.67
2018-05-12T03:49:02.263Z,987.64
2018-05-12T03:50:08.998Z,987.56
2018-05-12T03:51:15.717Z,987.56
2018-05-12T03:52:22.466Z,987.60
2018-05-12T03:53:29.327Z,987.61
2018-05-12T03:54:36.065Z,987.56
2018-05-12T03:55:42.821Z,987.64
2018-05-12T03:56:49.555Z,987.62
2018-05-12T03:57:56.387Z,987.59
2018-05-12T03:59:03.138Z,987.65
2018-05-12T04:00:09.907Z,987.63
2018-05-12T04:01:16.902Z,987.64
2018-05-12T04:02:23.642Z,987.61
2018-05-12T04:03:30.379Z,987.64
2018-05-12T04:04:37.114Z,987.58
2018-05-12T04:05:44.614Z,987.67
2018-05-12T04:06:54.934Z,987.58
2018-05-12T04:08:07.571Z,987.62
2018-05-12T04:09:16.330Z,987.71
2018-05-12T04:10:23.074Z,987.64
2018-05-12T04:11:29.944Z,987.59
2018-05-12T04:12:36.924Z,987.58
2018-05-12T04:13:43.827Z,987.60
2018-05-12T04:14:50.639Z,987.56
2018-05-12T04:15:57.370Z,987.59
2018-05-12T04:17:04.098Z,987.65
2018-05-12T04:18:10.859Z,987.59
2018-05-12T04:19:17.726Z,987.60
2018-05-12T04:20:24.451Z,987.58
2018-05-12T04:21:31.197Z,987.65
2018-05-12T04:22:37.931Z,987.64
2018-05-12T04:23:44.791Z,987.68
2018-05-12T04:24:51.563Z,987.62
2018-05-12T04:25:58.289Z,987.66
2018-05-12T04:27:05.022Z,987.63
2018-05-12T04:28:11.735Z,987.63
2018-05-12T04:29:18.607Z,987.67
2018-05-12T04:30:25.357Z,987.68
2018-05-12T04:31:32.082Z,987.63
2018-05-12T04:32:38.793Z,987.71
2018-05-12T04:33:45.575Z,987.69
2018-05-12T04:34:52.326Z,987.69
2018-05-12T04:35:59.095Z,987.69
2018-05-12T04:37:05.823Z,987.63
2018-05-12T04:38:12.642Z,987.64
2018-05-12T04:39:19.390Z,987.63
2018-05-12T04:40:26.138Z,987.60
2018-05-12T04:41:32.858Z,987.59
2018-05-12T04:42:39.699Z,987.59
2018-05-12T04:43:46.392Z,987.56
2018-05-12T04:44:53.127Z,987.59
2018-05-12T04:45:59.835Z,987.62
2018-05-12T04:47:06.562Z,987.55
2018-05-12T04:48:13.277Z,987.56
2018-05-12T04:49:20.083Z,987.55
2018-05-12T04:50:26.771Z,987.53
2018-05-12T04:51:33.620Z,987.56
2018-05-12T04:52:40.354Z,987.63
2018-05-12T04:53:47.127Z,987.61
2018-05-12T04:54:53.848Z,987.57
2018-05-12T04:56:00.587Z,987.53
2018-05-12T04:57:07.363Z,987.48
2018-05-12T04:58:14.211Z,987.58
2018-05-12T04:59:20.982Z,987.53
2018-05-12T05:00:27.687Z,987.55
2018-05-12T05:01:34.480Z,987.52
2018-05-12T05:02:41.254Z,987.53
2018-05-12T05:03:47.930Z,987.51
2018-05-12T05:04:54.667Z,987.46
2018-05-12T05:06:01.379Z,987.59
2018-05-12T05:07:08.122Z,987.51
2018-05-12T05:08:15.195Z,987.47
2018-05-12T05:09:21.894Z,987.56
2018-05-12T05:10:28.622Z,987.61
2018-05-12T05:11:35.375Z,987.62
2018-05-12T05:12:42.075Z,987.57
2018-05-12T05:13:48.803Z,987.58
2018-05-12T05:14:55.553Z,987.60
2018-05-12T05:16:02.296Z,987.59
2018-05-12T05:17:09.052Z,987.57
2018-05-12T05:18:15.790Z,987.60
2018-05-12T05:19:22.537Z,987.54
2018-05-12T05:20:29.231Z,987.60
2018-05-12T05:21:35.905Z,987.56
2018-05-12T05:22:42.608Z,987.58
2018-05-12T05:23:49.371Z,987.55
2018-05-12T05:24:56.092Z,987.48
2018-05-12T05:26:02.769Z,987.52
2018-05-12T05:27:09.483Z,987.56
2018-05-12T05:28:16.177Z,987.51
2018-05-12T05:29:22.971Z,987.53
2018-05-12T05:30:29.729Z,987.50
2018-05-12T05:31:36.487Z,987.48
2018-05-12T05:32:43.183Z,987.51
2018-05-12T05:33:49.963Z,987.50
2018-05-12T05:34:56.698Z,987.53
2018-05-12T05:36:03.567Z,987.54
2018-05-12T05:37:10.277Z,987.56
2018-05-12T05:38:17.011Z,987.53
2018-05-12T05:39:23.737Z,987.54
2018-05-12T05:40:30.505Z,987.56
2018-05-12T05:41:37.317Z,987.51
2018-05-12T05:42:44.292Z,987.51
2018-05-12T05:43:50.979Z,987.49
2018-05-12T05:44:57.686Z,987.56
2018-05-12T05:46:04.390Z,987.57
2018-05-12T05:47:11.112Z,987.58
2018-05-12T05:48:17.792Z,987.52
2018-05-12T05:49:24.528Z,987.52
2018-05-12T05:50:31.278Z,987.47
2018-05-12T05:51:37.962Z,987.60
2018-05-12T05:52:44.675Z,987.58
2018-05-12T05:53:51.351Z,987.58
2018-05-12T05:54:58.093Z,987.50
2018-05-12T05:56:04.775Z,987.54
2018-05-12T05:57:11.735Z,987.53
2018-05-12T05:58:18.559Z,987.62
2018-05-12T05:59:25.324Z,987.55
2018-05-12T06:00:32.154Z,987.54
2018-05-12T06:01:38.876Z,987.56
2018-05-12T06:02:45.592Z,987.54
2018-05-12T06:03:52.286Z,987.56
2018-05-12T06:04:58.996Z,987.51
2018-05-12T06:06:05.864Z,987.55
2018-05-12T06:07:12.598Z,987.54
2018-05-12T06:08:19.325Z,987.55
2018-05-12T06:09:26.060Z,987.48
2018-05-12T06:10:32.843Z,987.51
2018-05-12T06:11:40.003Z,987.47
2018-05-12T06:12:46.712Z,987.48
2018-05-12T06:13:53.515Z,987.56
2018-05-12T06:15:00.243Z,987.50
2018-05-12T06:16:07.060Z,987.49
2018-05-12T06:17:13.747Z,987.48
2018-05-12T06:18:20.496Z,987.42
2018-05-12T06:19:27.259Z,987.46
2018-05-12T06:20:33.937Z,987.42
2018-05-12T06:21:42.008Z,987.51
2018-05-12T06:22:47.955Z,987.47
2018-05-12T06:23:54.634Z,987.47
2018-05-12T06:25:01.371Z,987.39
2018-05-12T06:26:08.098Z,987.50
2018-05-12T06:27:17.832Z,987.49
2018-05-12T06:28:26.508Z,987.51
2018-05-12T06:29:33.558Z,987.43
2018-05-12T06:30:40.270Z,987.45
2018-05-12T06:31:47.098Z,987.44
2018-05-12T06:32:54.148Z,987.38
2018-05-12T06:34:00.847Z,987.40
2018-05-12T06:35:07.577Z,987.42
2018-05-12T06:36:14.311Z,987.41
2018-05-12T06:37:21.094Z,987.39
2018-05-12T06:38:27.875Z,987.48
2018-05-12T06:39:34.623Z,987.46
2018-05-12T06:40:41.339Z,987.37
2018-05-12T06:41:48.070Z,987.43
2018-05-12T06:42:54.767Z,987.44
2018-05-12T06:44:01.483Z,987.42
2018-05-12T06:45:08.255Z,987.38
2018-05-12T06:46:14.938Z,987.41
2018-05-12T06:47:21.660Z,987.45
2018-05-12T06:48:28.400Z,987.42
2018-05-12T06:49:35.154Z,987.39
2018-05-12T06:50:41.940Z,987.35
2018-05-12T06:51:48.759Z,987.37
2018-05-12T06:52:55.464Z,987.43
2018-05-12T06:54:02.185Z,987.47
2018-05-12T06:55:09.012Z,987.40
2018-05-12T06:56:15.818Z,987.44
2018-05-12T06:57:22.537Z,987.44
2018-05-12T06:58:29.233Z,987.46
2018-05-12T06:59:35.931Z,987.39
2018-05-12T07:00:42.702Z,987.45
2018-05-12T07:01:49.456Z,987.50
2018-05-12T07:02:56.154Z,987.41
2018-05-12T07:04:02.867Z,987.42
2018-05-12T07:05:09.632Z,987.44
2018-05-12T07:06:16.422Z,987.32
2018-05-12T07:07:23.114Z,987.30
2018-05-12T07:08:29.926Z,987.34
2018-05-12T07:09:36.639Z,987.27
2018-05-12T07:10:43.342Z,987.25
2018-05-12T07:11:50.147Z,987.27
2018-05-12T07:12:56.835Z,987.28
2018-05-12T07:14:03.539Z,987.34
2018-05-12T07:15:10.281Z,987.32
2018-05-12T07:16:17.036Z,987.30
2018-05-12T07:17:23.726Z,987.29
2018-05-12T07:18:30.543Z,987.30
2018-05-12T07:19:37.244Z,987.33
2018-05-12T07:20:44.113Z,987.30
2018-05-12T07:21:51.027Z,987.29
2018-05-12T07:22:57.761Z,987.30
2018-05-12T07:24:04.512Z,987.31
2018-05-12T07:25:11.264Z,987.17
2018-05-12T07:26:18.047Z,987.25
2018-05-12T07:27:24.723Z,987.25
2018-05-12T07:28:31.458Z,987.16
2018-05-12T07:29:38.343Z,987.14
2018-05-12T07:30:45.258Z,987.26
2018-05-12T07:31:51.971Z,987.23
2018-05-12T07:32:58.671Z,987.17
2018-05-12T07:34:05.608Z,987.23
2018-05-12T07:35:12.334Z,987.21
2018-05-12T07:36:19.055Z,987.22
2018-05-12T07:37:25.772Z,987.18
2018-05-12T07:38:32.507Z,987.16
2018-05-12T07:39:39.280Z,987.24
2018-05-12T07:40:45.983Z,987.11
2018-05-12T07:41:52.815Z,987.17
2018-05-12T07:42:59.512Z,987.29
2018-05-12T07:44:06.323Z,987.25
2018-05-12T07:45:13.063Z,987.22
2018-05-12T07:46:19.806Z,987.21
2018-05-12T07:47:26.755Z,987.22
2018-05-12T07:48:33.501Z,987.18
2018-05-12T07:49:40.193Z,987.26
2018-05-12T07:50:46.931Z,987.20
2018-05-12T07:51:53.630Z,987.17
2018-05-12T07:53:00.331Z,987.18
2018-05-12T07:54:07.129Z,987.23
2018-05-12T07:55:13.868Z,987.15
2018-05-12T07:56:20.671Z,987.19
2018-05-12T07:57:27.363Z,987.11
2018-05-12T07:58:34.063Z,987.13
2018-05-12T07:59:40.832Z,987.16
2018-05-12T08:00:47.583Z,987.13
2018-05-12T08:01:54.315Z,987.14
2018-05-12T08:03:01.033Z,987.14
2018-05-12T08:04:07.755Z,987.15
2018-05-12T08:05:14.573Z,987.02
2018-05-12T08:06:21.283Z,987.04
2018-05-12T08:07:28.138Z,987.08
2018-05-12T08:08:34.844Z,987.03
2018-05-12T08:09:41.641Z,987.04
2018-05-12T08:10:48.391Z,987.11
2018-05-12T08:11:55.305Z,987.08
2018-05-12T08:13:02.079Z,987.05
2018-05-12T08:14:08.847Z,987.09
2018-05-12T08:15:15.590Z,987.03
2018-05-12T08:16:22.284Z,986.99
2018-05-12T08:17:29.130Z,986.96
2018-05-12T08:18:35.836Z,986.96
2018-05-12T08:19:42.535Z,986.88
2018-05-12T08:20:49.234Z,987.01
2018-05-12T08:21:56.007Z,986.92
2018-05-12T08:24:09.746Z,986.86
2018-05-12T08:25:16.495Z,986.87
2018-05-12T08:26:23.326Z,986.89
2018-05-12T08:27:30.068Z,986.91
2018-05-12T08:28:36.843Z,986.85
2018-05-12T08:29:43.692Z,986.87
2018-05-12T08:30:50.493Z,986.86
2018-05-12T08:31:57.240Z,986.79
2018-05-12T08:33:03.965Z,986.76
2018-05-12T08:34:10.758Z,986.76
2018-05-12T08:35:17.511Z,986.72
2018-05-12T08:36:24.262Z,986.79
2018-05-12T08:37:31.022Z,986.66
2018-05-12T08:38:37.852Z,986.72
2018-05-12T08:39:44.640Z,986.72
2018-05-12T08:40:51.420Z,986.67
2018-05-12T08:41:58.143Z,986.69
2018-05-12T08:43:04.922Z,986.62
2018-05-12T08:44:11.679Z,986.69
2018-05-12T08:45:18.412Z,986.60
2018-05-12T08:46:25.162Z,986.59
2018-05-12T08:47:32.016Z,986.60
2018-05-12T08:48:38.778Z,986.60
2018-05-12T08:49:45.512Z,986.61
2018-05-12T08:50:52.301Z,986.57
2018-05-12T08:51:59.071Z,986.52
2018-05-12T08:54:13.050Z,986.54
2018-05-12T08:55:19.788Z,986.52
2018-05-12T08:56:26.459Z,986.53
2018-05-12T08:57:33.127Z,986.52
2018-05-12T08:58:40.566Z,986.56
2018-05-12T08:59:47.252Z,986.49
2018-05-12T09:00:54.102Z,986.46
2018-05-12T09:02:00.879Z,986.44
2018-05-12T09:03:07.563Z,986.46
2018-05-12T09:04:14.362Z,986.42
2018-05-12T09:05:21.063Z,986.50
2018-05-12T09:06:27.994Z,986.46
2018-05-12T09:07:34.810Z,986.37
2018-05-12T09:08:41.508Z,986.39
2018-05-12T09:09:48.215Z,986.38
2018-05-12T09:10:54.931Z,986.35
2018-05-12T09:12:01.733Z,986.36
2018-05-12T09:13:08.430Z,986.28
2018-05-12T09:14:15.145Z,986.28
2018-05-12T09:15:21.852Z,986.31
2018-05-12T09:16:28.563Z,986.33
2018-05-12T09:17:35.309Z,986.28
2018-05-12T09:18:42.092Z,986.25
2018-05-12T09:19:48.768Z,986.31
2018-05-12T09:20:55.751Z,986.18
2018-05-12T09:22:02.549Z,986.22
2018-05-12T09:23:09.283Z,986.29
2018-05-12T09:24:16.034Z,986.28
2018-05-12T09:25:22.748Z,986.21
2018-05-12T09:26:29.470Z,986.22
2018-05-12T09:27:36.292Z,986.15
2018-05-12T09:28:43.047Z,986.26
2018-05-12T09:29:49.782Z,986.25
2018-05-12T09:30:56.527Z,986.21
2018-05-12T09:32:03.334Z,986.27
2018-05-12T09:33:10.083Z,986.31
2018-05-12T09:34:16.805Z,986.15
2018-05-12T09:35:23.542Z,986.26
2018-05-12T09:36:30.280Z,986.21
2018-05-12T09:37:37.060Z,986.19
2018-05-12T09:38:43.822Z,986.15
2018-05-12T09:39:50.648Z,986.16
2018-05-12T09:40:57.414Z,986.12
2018-05-12T09:42:04.163Z,986.18
2018-05-12T09:43:10.883Z,986.13
2018-05-12T09:44:17.634Z,986.08
2018-05-12T09:45:24.387Z,986.06
2018-05-12T09:46:31.095Z,986.09
2018-05-12T09:47:37.783Z,985.95
2018-05-12T09:48:44.590Z,985.99
2018-05-12T09:49:51.338Z,986.02
2018-05-12T09:50:58.083Z,985.98
2018-05-12T09:52:04.820Z,985.92
2018-05-12T09:53:11.526Z,985.91
2018-05-12T09:54:18.358Z,985.94
2018-05-12T09:55:25.082Z,985.87
2018-05-12T09:56:31.812Z,985.89
2018-05-12T09:57:38.562Z,985.80
2018-05-12T09:59:54.559Z,985.76
2018-05-12T10:01:01.407Z,985.82
2018-05-12T10:02:08.167Z,985.77
2018-05-12T10:03:14.892Z,985.69
2018-05-12T10:04:21.705Z,985.75
2018-05-12T10:05:28.419Z,985.72
2018-05-12T10:06:35.152Z,985.57
2018-05-12T10:07:42.311Z,985.65
2018-05-12T10:08:49.072Z,985.64
2018-05-12T10:09:55.779Z,985.59
2018-05-12T10:11:02.524Z,985.64
2018-05-12T10:12:09.274Z,985.65
2018-05-12T10:13:16.288Z,985.62
2018-05-12T10:14:23.079Z,985.59
2018-05-12T10:15:29.909Z,985.55
2018-05-12T10:16:36.902Z,985.57
2018-05-12T10:17:43.671Z,985.60
2018-05-12T10:18:50.479Z,985.55
2018-05-12T10:19:57.331Z,985.57
2018-05-12T10:21:04.127Z,985.53
2018-05-12T10:22:10.887Z,985.55
2018-05-12T10:23:17.627Z,985.57
2018-05-12T10:24:24.434Z,985.58
2018-05-12T10:25:31.162Z,985.56
2018-05-12T10:26:37.948Z,985.65
2018-05-12T10:27:44.666Z,985.55
2018-05-12T10:28:51.656Z,985.61
2018-05-12T10:29:58.403Z,985.56
2018-05-12T10:31:05.163Z,985.52
2018-05-12T10:32:11.963Z,985.62
2018-05-12T10:33:18.726Z,985.55
2018-05-12T10:34:25.513Z,985.50
2018-05-12T10:35:32.380Z,985.56
2018-05-12T10:36:39.131Z,985.47
2018-05-12T10:37:45.968Z,985.43
2018-05-12T10:38:52.883Z,985.48
2018-05-12T10:39:59.635Z,985.43
2018-05-12T10:41:06.428Z,985.44
2018-05-12T10:42:13.240Z,985.41
2018-05-12T10:43:19.975Z,985.42
2018-05-12T10:44:26.759Z,985.38
2018-05-12T10:45:33.513Z,985.41
2018-05-12T10:46:40.339Z,985.41
2018-05-12T10:47:47.083Z,985.37
2018-05-12T10:48:53.832Z,985.41
2018-05-12T10:50:00.603Z,985.37
2018-05-12T10:51:07.443Z,985.33
2018-05-12T10:52:14.248Z,985.36
2018-05-12T10:53:21.020Z,985.31
2018-05-12T10:54:27.826Z,985.23
2018-05-12T10:55:34.549Z,985.32
2018-05-12T10:56:41.346Z,985.32
2018-05-12T10:57:48.083Z,985.35
2018-05-12T10:58:54.927Z,985.32
2018-05-12T11:00:01.745Z,985.29
2018-05-12T11:01:08.726Z,985.37
2018-05-12T11:02:15.495Z,985.35
2018-05-12T11:03:22.247Z,985.37
2018-05-12T11:04:28.953Z,985.38
2018-05-12T11:05:35.751Z,985.38
2018-05-12T11:06:42.510Z,985.34
2018-05-12T11:07:49.223Z,985.28
2018-05-12T11:08:55.963Z,985.27
2018-05-12T11:10:02.703Z,985.34
2018-05-12T11:11:09.509Z,985.25
2018-05-12T11:12:16.254Z,985.34
2018-05-12T11:13:22.988Z,985.20
2018-05-12T11:14:29.737Z,985.14
2018-05-12T11:15:36.477Z,985.15
2018-05-12T11:16:43.248Z,985.12
2018-05-12T11:17:50.167Z,985.10
2018-05-12T11:18:57.042Z,985.07
2018-05-12T11:20:03.811Z,985.08
2018-05-12T11:21:10.594Z,985.06
2018-05-12T11:22:17.390Z,985.05
2018-05-12T11:23:24.143Z,985.07
2018-05-12T11:24:30.891Z,985.00
2018-05-12T11:25:37.663Z,985.04
2018-05-12T11:26:44.481Z,984.97
2018-05-12T11:27:51.237Z,984.96
2018-05-12T11:28:57.985Z,984.99
2018-05-12T11:30:04.830Z,984.98
2018-05-12T11:31:11.581Z,984.99
2018-05-12T11:32:18.345Z,984.95
2018-05-12T11:33:25.160Z,984.94
2018-05-12T11:34:31.907Z,984.97
2018-05-12T11:35:38.623Z,984.96
2018-05-12T11:36:45.475Z,985.00
2018-05-12T11:37:52.206Z,985.01
2018-05-12T11:38:59.027Z,984.94
2018-05-12T11:40:05.895Z,984.96
2018-05-12T11:41:12.622Z,984.92
2018-05-12T11:42:19.404Z,984.94
2018-05-12T11:43:26.178Z,984.91
2018-05-12T11:44:33.056Z,984.87
2018-05-12T11:45:39.714Z,984.85
2018-05-12T11:46:46.504Z,984.89
2018-05-12T11:47:53.246Z,984.89
2018-05-12T11:49:00.050Z,984.87
2018-05-12T11:50:06.799Z,984.78
2018-05-12T11:51:13.603Z,984.70
2018-05-12T11:52:20.369Z,984.77
2018-05-12T11:53:27.151Z,984.82
2018-05-12T11:54:33.879Z,984.78
2018-05-12T11:55:40.603Z,984.77
2018-05-12T11:56:47.412Z,984.81
2018-05-12T11:57:54.227Z,984.75
2018-05-12T11:59:01.080Z,984.73
2018-05-12T12:00:07.850Z,984.74
2018-05-12T12:01:14.667Z,984.66
2018-05-12T12:02:21.513Z,984.72
2018-05-12T12:03:28.212Z,984.73
2018-05-12T12:04:34.935Z,984.68
2018-05-12T12:05:41.753Z,984.69
2018-05-12T12:06:48.527Z,984.66
2018-05-12T12:07:55.270Z,984.64
2018-05-12T12:09:03.766Z,984.68
2018-05-12T12:12:22.472Z,984.60
2018-05-12T12:13:29.299Z,984.62
2018-05-12T12:14:36.073Z,984.59
2018-05-12T12:15:42.891Z,984.61
2018-05-12T12:16:49.772Z,984.64
2018-05-12T12:17:56.515Z,984.67
2018-05-12T12:19:03.356Z,984.64
2018-05-12T12:20:10.226Z,984.58
2018-05-12T12:21:17.014Z,984.64
2018-05-12T12:22:23.869Z,984.57
2018-05-12T12:23:30.667Z,984.57
2018-05-12T12:24:37.422Z,984.49
2018-05-12T12:25:44.135Z,984.54
2018-05-12T12:26:50.891Z,984.51
2018-05-12T12:27:57.758Z,984.52
2018-05-12T12:29:04.543Z,984.49
2018-05-12T12:30:11.540Z,984.59
2018-05-12T12:31:18.315Z,984.44
2018-05-12T12:32:25.058Z,984.49
2018-05-12T12:33:31.859Z,984.44
2018-05-12T12:34:38.673Z,984.45
2018-05-12T12:35:45.551Z,984.36
2018-05-12T12:36:52.442Z,984.36
2018-05-12T12:37:59.183Z,984.35
2018-05-12T12:39:05.979Z,984.42
2018-05-12T12:40:12.941Z,984.47
2018-05-12T12:41:19.716Z,984.35
2018-05-12T12:42:26.670Z,984.36
2018-05-12T12:43:33.416Z,984.35
2018-05-12T12:44:40.136Z,984.33
2018-05-12T12:45:46.900Z,984.31
2018-05-12T12:46:53.719Z,984.21
2018-05-12T12:48:00.484Z,984.23
2018-05-12T12:49:07.272Z,984.27
2018-05-12T12:50:14.117Z,984.28
2018-05-12T12:51:20.879Z,984.32
2018-05-12T12:52:27.722Z,984.26
2018-05-12T12:53:34.525Z,984.24
2018-05-12T12:54:41.291Z,984.31
2018-05-12T12:55:48.052Z,984.27
2018-05-12T12:56:55.040Z,984.31
2018-05-12T12:58:01.842Z,984.23
2018-05-12T12:59:08.676Z,984.24
2018-05-12T13:00:15.447Z,984.25
2018-05-12T13:01:22.174Z,984.23
2018-05-12T13:02:28.912Z,984.23
2018-05-12T13:03:35.656Z,984.19
2018-05-12T13:04:42.528Z,984.18
2018-05-12T13:05:49.408Z,984.13
2018-05-12T13:06:56.295Z,984.04
2018-05-12T13:08:03.027Z,984.12
2018-05-12T13:09:09.791Z,984.09
2018-05-12T13:10:16.503Z,984.01
2018-05-12T13:11:23.222Z,984.02
2018-05-12T13:12:30.025Z,984.00
2018-05-12T13:13:36.749Z,984.04
2018-05-12T13:14:43.559Z,983.98
2018-05-12T13:15:50.279Z,984.00
2018-05-12T13:16:57.107Z,983.84
2018-05-12T13:18:03.805Z,983.90
2018-05-12T13:19:10.569Z,983.91
2018-05-12T13:20:17.327Z,983.79
2018-05-12T13:21:24.188Z,983.79
2018-05-12T13:22:31.264Z,983.86
2018-05-12T13:23:38.015Z,983.83
2018-05-12T13:24:44.773Z,983.75
2018-05-12T13:25:51.864Z,983.82
2018-05-12T13:26:58.216Z,983.88
2018-05-12T13:28:05.090Z,983.80
2018-05-12T13:29:12.015Z,983.71
2018-05-12T13:30:18.798Z,983.78
2018-05-12T13:31:25.547Z,983.79
2018-05-12T13:32:32.383Z,983.83
2018-05-12T13:33:39.128Z,983.76
2018-05-12T13:34:46.894Z,983.74
2018-05-12T13:35:52.711Z,983.71
2018-05-12T13:36:59.562Z,983.78
2018-05-12T13:38:06.291Z,983.72
2018-05-12T13:39:13.107Z,983.74
2018-05-12T13:40:20.048Z,983.70
2018-05-12T13:41:26.744Z,983.61
2018-05-12T13:42:33.566Z,983.57
2018-05-12T13:43:40.442Z,983.54
2018-05-12T13:44:47.320Z,983.57
2018-05-12T13:45:54.370Z,983.54
2018-05-12T13:47:01.163Z,983.46
2018-05-12T13:48:07.842Z,983.48
2018-05-12T13:49:14.630Z,983.45
2018-05-12T13:50:21.420Z,983.39
2018-05-12T13:51:28.213Z,983.45
2018-05-12T13:52:34.980Z,983.44
2018-05-12T13:53:41.767Z,983.33
2018-05-12T13:54:49.835Z,983.38
2018-05-12T13:55:55.871Z,983.32
2018-05-12T13:57:02.663Z,983.32
2018-05-12T13:58:09.610Z,983.36
2018-05-12T13:59:16.399Z,983.31